Time;durP1;ratioP1;P1;durP2;ratioP2;P2;SDS_P1;SDS_P2;PMS_P1;PMS_P2;Temp;Humidity;BMP_temperature;BMP_pressure;BME280_temperature;BME280_humidity;BME280_pressure;Samples;Min_cycle;Max_cycle;Signal;HPM_P1;HPM_P2
2021/04/16 00:00:29;;;;;;;14.98;6.40;;;;;;;2.53;84.03;101094.91;1708063;83;21449;-74
2021/04/16 00:02:57;;;;;;;19.02;7.05;;;;;;;2.53;84.04;101098.85;1710501;83;21712;-74
2021/04/16 00:05:24;;;;;;;9.20;4.92;;;;;;;2.52;84.04;101099.32;1710623;83;21168;-74
2021/04/16 00:07:50;;;;;;;11.88;6.33;;;;;;;2.52;84.04;101095.38;1710605;83;21155;-74
2021/04/16 00:10:22;;;;;;;11.15;5.87;;;;;;;2.53;84.06;101094.91;1710688;83;21620;-74
2021/04/16 00:12:48;;;;;;;18.40;6.17;;;;;;;2.51;84.06;101089.26;1710491;83;21214;-74
2021/04/16 00:15:19;;;;;;;13.62;6.53;;;;;;;2.51;84.07;101089.26;1710542;83;21178;-74
2021/04/16 00:17:46;;;;;;;12.68;6.95;;;;;;;2.53;84.05;101088.32;1710586;83;21625;-74
2021/04/16 00:20:14;;;;;;;19.77;5.83;;;;;;;2.53;84.06;101088.67;1710594;83;21651;-74
2021/04/16 00:22:40;;;;;;;14.13;6.72;;;;;;;2.55;84.06;101087.27;1710751;83;21168;-74
2021/04/16 00:25:08;;;;;;;11.05;6.45;;;;;;;2.56;84.09;101088.96;1710489;83;21446;-74
2021/04/16 00:27:34;;;;;;;18.25;7.53;;;;;;;2.57;84.09;101091.13;1708595;83;21155;-75
2021/04/16 00:30:01;;;;;;;13.70;6.62;;;;;;;2.57;84.09;101086.67;1710722;83;21187;-75
2021/04/16 00:32:27;;;;;;;16.17;6.42;;;;;;;2.59;84.09;101083.95;1710654;83;21183;-75
2021/04/16 00:34:53;;;;;;;13.70;6.08;;;;;;;2.59;84.10;101078.69;1710587;83;21613;-75
2021/04/16 00:37:20;;;;;;;11.35;5.58;;;;;;;2.60;84.09;101077.75;1710643;83;21251;-75
2021/04/16 00:39:46;;;;;;;17.57;6.08;;;;;;;2.60;84.12;101081.70;1710592;83;21639;-75
2021/04/16 00:42:13;;;;;;;20.12;8.48;;;;;;;2.60;84.10;101085.19;1710855;83;21143;-75
2021/04/16 00:44:39;;;;;;;16.32;6.78;;;;;;;2.63;84.11;101078.86;1710669;83;21163;-75
2021/04/16 00:47:12;;;;;;;22.50;8.50;;;;;;;2.66;84.12;101079.97;1710510;83;21180;-75
2021/04/16 00:49:45;;;;;;;14.80;7.70;;;;;;;2.66;84.13;101077.34;1710647;83;21896;-75
2021/04/16 00:52:12;;;;;;;18.75;8.20;;;;;;;2.67;84.13;101073.77;1710377;82;21203;-75
2021/04/16 00:54:41;;;;;;;16.32;6.87;;;;;;;2.66;84.14;101072.07;1693102;83;21251;-74
2021/04/16 00:57:10;;;;;;;9.75;5.75;;;;;;;2.67;84.13;101073.77;1710666;83;21155;-74
2021/04/16 00:59:43;;;;;;;15.28;7.53;;;;;;;2.66;84.14;101068.12;1710983;83;21160;-74
2021/04/16 01:02:11;;;;;;;13.18;6.40;;;;;;;2.67;84.14;101069.81;1710521;83;21269;-74
2021/04/16 01:04:37;;;;;;;14.95;6.75;;;;;;;2.67;84.13;101071.13;1710615;83;21204;-74
2021/04/16 01:07:04;;;;;;;12.45;6.30;;;;;;;2.67;84.14;101076.40;1710789;83;21570;-74
2021/04/16 01:09:31;;;;;;;16.67;6.03;;;;;;;2.67;84.14;101073.30;1710739;83;21605;-74
2021/04/16 01:12:01;;;;;;;17.50;6.95;;;;;;;2.67;84.13;101076.40;1710765;83;21155;-74
2021/04/16 01:14:27;;;;;;;;;;;;;;;2.66;84.15;101069.44;1694136;83;21211;-74
2021/04/16 01:16:53;;;;;;;10.00;5.95;;;;;;;2.68;84.12;101073.64;1710612;82;20335;-74
2021/04/16 01:19:47;;;;;;;16.87;6.33;;;;;;;2.67;84.13;101073.77;1710650;83;21148;-74
2021/04/16 01:22:53;;;;;;;12.73;6.53;;;;;;;2.69;84.13;101070.55;1710610;82;22046;-75
2021/04/16 01:25:20;;;;;;;12.20;6.60;;;;;;;2.68;84.14;101069.70;1708313;82;21203;-75
2021/04/16 01:27:47;;;;;;;16.60;6.65;;;;;;;2.69;84.12;101069.23;1682037;84;21187;-75
2021/04/16 01:30:18;;;;;;;16.82;7.35;;;;;;;2.72;84.13;101071.65;1682141;84;21227;-75
2021/04/16 01:32:44;;;;;;;15.63;6.85;;;;;;;2.71;84.13;101071.30;1682091;85;21685;-75
2021/04/16 01:35:15;;;;;;;16.00;7.00;;;;;;;2.73;84.14;101070.71;1682005;85;21151;-75
2021/04/16 01:37:41;;;;;;;17.55;7.03;;;;;;;2.73;84.12;101070.71;1676366;84;21211;-75
2021/04/16 01:40:08;;;;;;;14.60;7.00;;;;;;;2.73;84.12;101075.98;1673826;85;21216;-75
2021/04/16 01:42:35;;;;;;;16.52;6.37;;;;;;;2.75;84.13;101070.12;1692287;84;21144;-75
2021/04/16 01:45:01;;;;;;;12.93;5.53;;;;;;;2.74;84.11;101069.77;1702048;84;21171;-75
2021/04/16 01:47:27;;;;;;;14.13;5.40;;;;;;;2.74;84.11;101075.04;1701945;82;21196;-75
2021/04/16 01:49:54;;;;;;;15.53;6.70;;;;;;;2.74;84.12;101068.45;1702062;84;21688;-75
2021/04/16 01:52:28;;;;;;;13.53;6.47;;;;;;;2.74;84.12;101068.45;1701985;84;22049;-75
2021/04/16 01:54:54;;;;;;;14.78;6.47;;;;;;;2.77;84.12;101068.24;1702066;84;21179;-74
2021/04/16 01:57:25;;;;;;;13.18;6.67;;;;;;;2.77;84.12;101063.83;1701747;84;21531;-74
2021/04/16 02:02:37;;;;;;;14.50;6.80;;;;;;;2.83;84.14;101063.41;1799963;77;27900;-75
2021/04/16 02:05:04;;;;;;;13.32;6.10;;;;;;;2.85;84.12;101059.36;1788056;80;21128;-75
2021/04/16 02:07:30;;;;;;;16.80;6.37;;;;;;;2.87;84.13;101060.08;1787861;80;21195;-75
2021/04/16 02:09:57;;;;;;;18.50;7.45;;;;;;;2.88;84.14;101061.78;1773251;80;21636;-75
2021/04/16 02:12:23;;;;;;;14.60;6.33;;;;;;;2.89;84.15;101056.86;1755898;81;21163;-75
2021/04/16 02:14:50;;;;;;;25.02;9.38;;;;;;;2.89;84.16;101058.17;1755204;80;21127;-75
2021/04/16 02:17:23;;;;;;;21.80;9.13;;;;;;;2.86;84.16;101059.23;1755039;81;21604;-75
2021/04/16 02:19:50;;;;;;;18.37;7.87;;;;;;;2.86;84.17;101062.34;1755127;81;21261;-75
2021/04/16 02:22:19;;;;;;;17.52;8.53;;;;;;;2.86;84.15;101060.55;1725977;81;21187;-75
2021/04/16 02:24:46;;;;;;;22.52;9.10;;;;;;;2.87;84.17;101063.56;1755139;81;21573;-75
2021/04/16 02:27:17;;;;;;;13.65;6.60;;;;;;;2.86;84.15;101061.02;1757295;80;21139;-75
2021/04/16 02:29:44;;;;;;;18.70;7.87;;;;;;;2.87;84.16;101060.08;1756671;81;21135;-75
2021/04/16 02:32:11;;;;;;;20.75;8.90;;;;;;;2.89;84.15;101056.86;1756454;80;22065;-75
2021/04/16 02:34:37;;;;;;;20.15;7.83;;;;;;;2.89;84.19;101060.81;1756627;81;21150;-75
2021/04/16 02:37:07;;;;;;;19.25;7.85;;;;;;;2.90;84.14;101063.82;1771151;80;21126;-75
2021/04/16 02:39:35;;;;;;;25.37;9.43;;;;;;;2.90;84.18;101065.98;1788007;80;21175;-75
2021/04/16 02:42:01;;;;;;;19.52;7.75;;;;;;;2.90;84.17;101059.88;1787746;80;21155;-76
2021/04/16 02:44:28;;;;;;;41.95;11.70;;;;;;;2.92;84.17;101065.90;1787800;80;21132;-76
2021/04/16 02:46:54;;;;;;;41.30;14.60;;;;;;;2.92;84.17;101069.84;1787596;80;21111;-75
2021/04/16 02:49:22;;;;;;;39.98;11.75;;;;;;;2.92;84.16;101066.71;1787738;80;21674;-75
2021/04/16 02:51:48;;;;;;;90.10;23.20;;;;;;;2.94;84.16;101069.25;1787803;80;21143;-75
2021/04/16 02:54:15;;;;;;;52.25;15.18;;;;;;;2.94;84.16;101066.16;1787775;80;21115;-75
2021/04/16 02:56:41;;;;;;;38.05;13.70;;;;;;;2.93;84.16;101062.29;1787913;80;21329;-75
2021/04/16 02:59:08;;;;;;;28.23;10.90;;;;;;;2.93;84.16;101067.56;1787778;80;21568;-75
2021/04/16 03:01:35;;;;;;;26.15;9.45;;;;;;;2.95;84.15;101070.95;1787880;80;21607;-75
2021/04/16 03:04:02;;;;;;;20.40;8.65;;;;;;;2.94;84.15;101061.35;1782831;80;21132;-75
2021/04/16 03:06:29;;;;;;;30.43;15.55;;;;;;;2.93;84.15;101062.29;1756579;81;21631;-75
2021/04/16 03:08:58;;;;;;;22.82;10.90;;;;;;;2.91;84.15;101060.25;1756565;81;21273;-75
2021/04/16 03:11:25;;;;;;;24.90;13.10;;;;;;;2.92;84.14;101063.27;1756450;81;21990;-75
2021/04/16 03:13:52;;;;;;;31.40;12.13;;;;;;;2.91;84.16;101061.56;1756052;81;21132;-75
2021/04/16 03:16:19;;;;;;;33.58;12.00;;;;;;;2.93;84.15;101062.29;1755945;80;21186;-75
2021/04/16 03:18:45;;;;;;;24.87;10.82;;;;;;;2.93;84.17;101068.88;1756113;81;21168;-75
2021/04/16 03:21:12;;;;;;;17.25;9.08;;;;;;;2.92;84.17;101064.58;1755742;81;22034;-75
2021/04/16 03:23:38;;;;;;;20.62;8.60;;;;;;;2.92;84.15;101066.71;1755883;81;22331;-74
2021/04/16 03:26:04;;;;;;;22.95;8.10;;;;;;;2.92;84.15;101071.98;1758060;80;21147;-75
2021/04/16 03:28:31;;;;;;;20.77;9.18;;;;;;;2.91;84.16;101068.16;1755721;80;21139;-75
2021/04/16 03:30:57;;;;;;;34.90;15.83;;;;;;;2.93;84.18;101076.78;1755727;81;21167;-75
2021/04/16 03:33:23;;;;;;;19.55;9.28;;;;;;;2.91;84.18;101066.83;1781026;80;22102;-75
2021/04/16 03:35:50;;;;;;;21.55;7.53;;;;;;;2.91;84.17;101075.59;1787257;80;21128;-75
2021/04/16 03:38:16;;;;;;;21.70;9.30;;;;;;;2.91;84.17;101073.42;1786962;80;21155;-75
2021/04/16 03:40:42;;;;;;;19.17;8.00;;;;;;;2.90;84.16;101074.36;1787173;80;21222;-75
2021/04/16 03:43:09;;;;;;;30.97;11.70;;;;;;;2.90;84.19;101078.31;1786987;79;21163;-75
2021/04/16 03:45:35;;;;;;;25.55;10.15;;;;;;;2.90;84.20;101073.89;1786852;80;21207;-75
2021/04/16 03:48:01;;;;;;;18.05;6.97;;;;;;;2.90;84.20;101070.41;1787033;80;21151;-74
2021/04/16 03:50:30;;;;;;;22.35;7.12;;;;;;;2.89;84.20;101076.61;1787107;80;21131;-74
2021/04/16 03:52:56;;;;;;;24.18;9.15;;;;;;;2.89;84.20;101069.56;1787213;80;21105;-74
2021/04/16 03:55:24;;;;;;;30.40;11.75;;;;;;;2.88;84.22;101078.43;1786918;80;21123;-75
2021/04/16 03:57:51;;;;;;;27.55;11.45;;;;;;;2.90;84.22;101075.67;1787148;80;21192;-75
2021/04/16 04:00:22;;;;;;;18.65;8.05;;;;;;;2.90;84.19;101080.94;1771719;80;21190;-74
2021/04/16 04:02:48;;;;;;;35.95;14.98;;;;;;;2.91;84.22;101087.44;1768300;80;21167;-74
2021/04/16 04:05:15;;;;;;;16.07;7.65;;;;;;;2.92;84.21;101086.97;1792702;80;21548;-75
2021/04/16 04:07:41;;;;;;;27.95;9.33;;;;;;;2.94;84.22;101086.38;1792892;80;21138;-74
2021/04/16 04:10:08;;;;;;;15.50;6.95;;;;;;;2.94;84.22;101083.74;1764846;80;21245;-75
2021/04/16 04:12:35;;;;;;;15.68;8.03;;;;;;;2.94;84.22;101080.64;1761117;81;21138;-74
2021/04/16 04:15:01;;;;;;;12.78;7.50;;;;;;;2.95;84.24;101074.91;1761617;81;21146;-74
2021/04/16 04:17:34;;;;;;;17.23;8.68;;;;;;;2.92;84.21;101081.70;1761383;81;21126;-74
2021/04/16 04:20:07;;;;;;;15.15;6.78;;;;;;;2.90;84.24;101079.62;1759747;80;21159;-74
2021/04/16 04:22:34;;;;;;;14.75;6.97;;;;;;;2.89;84.24;101080.56;1792818;80;22130;-75
2021/04/16 04:25:00;;;;;;;16.95;7.53;;;;;;;2.87;84.25;101083.32;1792112;80;21119;-75
2021/04/16 04:27:26;;;;;;;13.25;6.78;;;;;;;2.87;84.22;101083.79;1793002;80;21183;-75
2021/04/16 04:29:52;;;;;;;17.02;7.53;;;;;;;2.86;84.23;101082.94;1792600;80;21100;-75
2021/04/16 04:32:19;;;;;;;14.73;6.92;;;;;;;2.85;84.25;101084.38;1792999;80;21183;-75
2021/04/16 04:34:45;;;;;;;16.97;7.15;;;;;;;2.84;84.24;101082.22;1791680;78;21305;-75
2021/04/16 04:37:11;;;;;;;14.95;8.60;;;;;;;2.83;84.26;101088.89;1792870;80;21575;-75
2021/04/16 04:39:43;;;;;;;13.90;5.60;;;;;;;2.83;84.27;101088.89;1792610;80;21119;-75
2021/04/16 04:42:10;;;;;;;18.32;6.97;;;;;;;2.82;84.26;101085.88;1792859;80;21167;-75
2021/04/16 04:44:38;;;;;;;12.55;5.80;;;;;;;2.82;84.24;101091.14;1790387;80;21202;-75
2021/04/16 04:47:04;;;;;;;11.05;5.75;;;;;;;2.82;84.26;101098.58;1761427;81;21238;-75
2021/04/16 04:49:31;;;;;;;12.70;6.10;;;;;;;2.83;84.28;101088.89;1761659;81;21600;-74
2021/04/16 04:52:10;;;;;;;9.98;6.30;;;;;;;2.83;84.28;101093.69;1761238;81;21134;-74
2021/04/16 04:54:38;;;;;;;14.03;7.12;;;;;;;2.82;84.27;101094.63;1763682;80;21182;-75
2021/04/16 04:57:04;;;;;;;14.90;7.15;;;;;;;2.81;84.28;101089.48;1792877;80;21565;-74
2021/04/16 04:59:31;;;;;;;13.55;7.17;;;;;;;2.82;84.29;101089.83;1792746;80;21600;-75
2021/04/16 05:01:57;;;;;;;11.00;6.50;;;;;;;2.80;84.29;101090.42;1789303;80;21638;-75
2021/04/16 05:04:23;;;;;;;16.48;7.47;;;;;;;2.79;84.29;101093.52;1789962;80;21135;-74
2021/04/16 05:06:50;;;;;;;15.50;7.53;;;;;;;2.78;84.27;101097.59;1790172;80;21170;-74
2021/04/16 05:09:16;;;;;;;13.10;6.12;;;;;;;2.79;84.29;101100.57;1790045;80;21135;-75
2021/04/16 05:11:43;;;;;;;12.73;7.55;;;;;;;2.79;84.27;101101.89;1788019;80;21142;-75
2021/04/16 05:14:09;;;;;;;15.03;7.62;;;;;;;2.79;84.29;101093.98;1789648;80;21127;-74
2021/04/16 05:16:35;;;;;;;15.00;6.90;;;;;;;2.81;84.31;101096.91;1790188;80;21143;-75
2021/04/16 05:19:02;;;;;;;15.72;7.80;;;;;;;2.83;84.30;101100.74;1790218;78;21139;-75
2021/04/16 05:21:29;;;;;;;13.40;6.75;;;;;;;2.83;84.30;101103.38;1783723;80;21393;-75
2021/04/16 05:23:56;;;;;;;13.80;6.92;;;;;;;2.84;84.31;101104.61;1759036;81;21307;-75
2021/04/16 05:26:22;;;;;;;16.37;6.78;;;;;;;2.86;84.30;101105.80;1758356;81;21156;-75
2021/04/16 05:28:49;;;;;;;18.92;9.63;;;;;;;2.87;84.31;101099.59;1758664;81;21226;-75
2021/04/16 05:31:15;;;;;;;18.17;9.20;;;;;;;2.90;84.32;101102.02;1764492;80;21549;-75
2021/04/16 05:33:41;;;;;;;19.05;10.85;;;;;;;2.91;84.34;101099.77;1772058;80;21139;-75
2021/04/16 05:36:08;;;;;;;12.85;6.90;;;;;;;2.91;84.33;101101.92;1758840;81;21322;-75
2021/04/16 05:38:34;;;;;;;14.00;7.10;;;;;;;2.92;84.34;101095.69;1758620;81;21151;-75
2021/04/16 05:41:00;;;;;;;25.72;9.58;;;;;;;2.92;84.34;101102.77;1779880;80;21139;-75
2021/04/16 05:43:27;;;;;;;12.53;7.28;;;;;;;2.93;84.35;101105.28;1789747;80;21147;-75
2021/04/16 05:45:53;;;;;;;11.97;6.37;;;;;;;2.93;84.34;101101.80;1765570;80;21150;-74
2021/04/16 05:48:19;;;;;;;14.85;6.60;;;;;;;2.92;84.34;101106.22;1768131;80;21548;-74
2021/04/16 05:50:46;;;;;;;13.38;7.22;;;;;;;2.92;84.34;101111.99;1769684;80;21178;-74
2021/04/16 05:53:12;;;;;;;12.60;8.58;;;;;;;2.93;84.36;101111.02;1761089;80;21185;-74
2021/04/16 05:55:40;;;;;;;13.65;7.33;;;;;;;2.93;84.36;101117.61;1758668;81;21155;-74
2021/04/16 05:58:07;;;;;;;12.53;7.62;;;;;;;2.92;84.37;101113.31;1758772;80;21140;-74
2021/04/16 06:00:34;;;;;;;14.43;7.55;;;;;;;2.91;84.36;101105.03;1761045;80;22155;-74
2021/04/16 06:03:00;;;;;;;14.05;8.30;;;;;;;2.92;84.35;101104.91;1758719;81;21191;-75
2021/04/16 06:05:27;;;;;;;9.53;6.00;;;;;;;2.95;84.36;101111.31;1758743;81;21143;-75
2021/04/16 06:07:55;;;;;;;13.38;6.17;;;;;;;2.95;84.37;101107.36;1760660;80;21134;-75
2021/04/16 06:10:23;;;;;;;15.78;8.65;;;;;;;2.92;84.33;101108.86;1758874;81;21139;-74
2021/04/16 06:12:50;;;;;;;28.00;9.88;;;;;;;2.94;84.36;101106.13;1758587;80;22127;-75
2021/04/16 06:15:20;;;;;;;25.70;10.78;;;;;;;2.93;84.37;101112.34;1758763;81;21191;-75
2021/04/16 06:17:48;;;;;;;;;;;;;;;2.94;84.37;101108.77;1773380;80;21135;-74
2021/04/16 06:20:18;;;;;;;19.85;9.45;;;;;;;2.96;84.36;101108.17;1769400;80;20544;-75
2021/04/16 06:25:30;;;;;;;13.18;7.08;;;;;;;3.02;84.34;101099.88;1825979;77;23322;-75
2021/04/16 06:27:58;;;;;;;16.80;8.18;;;;;;;2.99;84.34;101102.73;1797528;78;21164;-75
2021/04/16 06:30:25;;;;;;;15.70;8.55;;;;;;;3.02;84.35;101105.15;1794574;78;21279;-74
2021/04/16 06:33:27;;;;;;;20.12;9.10;;;;;;;3.09;84.37;101106.42;1806907;78;21191;-74
2021/04/16 06:36:00;;;;;;;33.08;14.28;;;;;;;3.15;84.37;101104.67;1794484;78;21179;-75
2021/04/16 06:38:32;;;;;;;21.87;12.63;;;;;;;3.20;84.38;101102.55;1790922;78;21212;-74
2021/04/16 06:40:58;;;;;;;56.88;27.60;;;;;;;3.22;84.37;101109.89;1789338;78;21187;-75
2021/04/16 06:43:42;;;;;;;129.32;63.08;;;;;;;3.23;84.36;101105.00;1796235;78;22094;-74
2021/04/16 06:46:13;;;;;;;44.83;23.62;;;;;;;3.27;84.37;101102.49;1792216;78;21877;-75
2021/04/16 06:48:39;;;;;;;26.12;15.18;;;;;;;3.29;84.36;101098.45;1793010;78;21597;-74
2021/04/16 06:51:06;;;;;;;22.80;10.58;;;;;;;3.33;84.36;101098.61;1791989;78;21558;-75
2021/04/16 06:53:56;;;;;;;16.57;8.53;;;;;;;3.37;84.36;101095.66;1798587;78;21564;-74
2021/04/16 06:56:30;;;;;;;14.00;8.43;;;;;;;3.41;84.36;101096.28;1791365;78;22107;-75
2021/04/16 06:59:17;;;;;;;15.03;7.75;;;;;;;3.39;84.36;101093.75;1790720;78;21228;-75
2021/04/16 07:01:52;;;;;;;65.25;25.10;;;;;;;3.40;84.35;101099.39;1792611;78;21169;-75
2021/04/16 07:04:30;;;;;;;18.55;9.83;;;;;;;3.41;84.33;101100.24;1794557;78;21174;-75
2021/04/16 07:06:59;;;;;;;18.02;9.85;;;;;;;3.43;84.33;101100.97;1800662;78;21163;-75
2021/04/16 07:09:32;;;;;;;13.80;8.00;;;;;;;3.49;84.31;101098.73;1794937;78;21137;-75
2021/04/16 07:12:16;;;;;;;20.05;9.95;;;;;;;3.56;84.29;101093.02;1785769;79;21187;-75
2021/04/16 07:14:50;;;;;;;17.57;9.28;;;;;;;3.65;84.28;101093.71;1784121;80;21126;-74
2021/04/16 07:17:23;;;;;;;16.93;8.15;;;;;;;3.73;84.27;101101.43;1782069;80;21667;-75
2021/04/16 07:19:51;;;;;;;18.15;7.85;;;;;;;3.79;84.26;101106.30;1789700;80;21191;-75
2021/04/16 07:22:24;;;;;;;18.95;7.53;;;;;;;3.86;84.26;101108.02;1784202;80;21194;-74
2021/04/16 07:24:52;;;;;;;15.32;7.72;;;;;;;3.92;84.24;101097.86;1782776;79;21719;-75
2021/04/16 07:27:27;;;;;;;22.45;11.30;;;;;;;3.96;84.24;101102.44;1778433;79;21567;-75
2021/04/16 07:29:57;;;;;;;31.62;13.98;;;;;;;4.00;84.21;101109.19;1771815;79;21138;-75
2021/04/16 07:32:38;;;;;;;17.32;9.53;;;;;;;4.07;84.19;101105.15;1789438;79;21158;-75
2021/04/16 07:35:22;;;;;;;21.95;10.75;;;;;;;4.13;84.19;101106.48;1788265;79;22092;-75
2021/04/16 07:38:09;;;;;;;22.85;8.63;;;;;;;4.16;84.16;101112.39;1785107;79;21222;-75
2021/04/16 07:40:40;;;;;;;28.77;12.50;;;;;;;4.16;84.13;101107.11;1786636;79;21745;-75
2021/04/16 07:43:06;;;;;;;28.50;12.78;;;;;;;4.16;84.09;101107.58;1788048;79;21167;-74
2021/04/16 07:45:43;;;;;;;27.02;9.45;;;;;;;4.20;84.05;101103.77;1786772;79;21167;-74
2021/04/16 07:48:29;;;;;;;19.65;9.15;;;;;;;4.23;84.04;101103.06;1785525;79;22067;-74
2021/04/16 07:50:55;;;;;;;20.62;9.40;;;;;;;4.23;84.01;101100.90;1792666;79;21179;-74
2021/04/16 07:53:28;;;;;;;28.70;12.93;;;;;;;4.24;83.99;101110.05;1762966;79;21138;-75
2021/04/16 07:56:08;;;;;;;27.10;11.18;;;;;;;4.23;83.97;101107.03;1747529;80;21129;-75
2021/04/16 07:59:04;;;;;;;21.93;9.53;;;;;;;4.30;83.93;101105.63;1819833;77;22702;-74
2021/04/16 08:01:34;;;;;;;19.52;9.23;;;;;;;4.33;83.89;101108.51;1792412;78;21207;-74
2021/04/16 08:04:11;;;;;;;20.37;9.57;;;;;;;4.45;83.84;101103.19;1799076;78;21196;-75
2021/04/16 08:06:43;;;;;;;22.45;9.30;;;;;;;4.69;83.80;101097.02;1793361;78;21207;-75
2021/04/16 08:09:29;;;;;;;15.72;6.50;;;;;;;4.97;83.73;101100.58;1796284;78;21155;-74
2021/04/16 08:12:04;;;;;;;28.95;14.63;;;;;;;5.08;83.64;101100.61;1793101;78;21146;-75
2021/04/16 08:14:33;;;;;;;23.22;13.95;;;;;;;5.22;83.58;101107.00;1798246;78;21834;-74
2021/04/16 08:17:04;;;;;;;14.05;5.67;;;;;;;5.27;83.53;101104.85;1792507;78;21846;-75
2021/04/16 08:19:36;;;;;;;30.80;11.50;;;;;;;5.20;83.47;101122.15;1792389;78;21414;-75
2021/04/16 08:22:24;;;;;;;56.88;22.50;;;;;;;5.10;83.42;101121.17;1794722;78;21593;-75
2021/04/16 08:25:01;;;;;;;68.70;28.57;;;;;;;5.01;83.35;101115.25;1798650;78;21171;-75
2021/04/16 08:27:48;;;;;;;23.25;9.40;;;;;;;4.96;83.32;101116.09;1792470;78;21143;-75
2021/04/16 08:30:44;;;;;;;33.67;11.73;;;;;;;5.03;83.24;101113.34;1795274;78;21262;-74
2021/04/16 08:33:37;;;;;;;22.00;9.93;;;;;;;5.04;83.16;101118.98;1793540;78;21177;-75
2021/04/16 08:36:09;;;;;;;24.95;9.88;;;;;;;4.98;83.07;101122.09;1793793;78;21210;-75
2021/04/16 08:38:44;;;;;;;20.82;8.53;;;;;;;4.97;83.02;101120.40;1791722;78;21184;-74
2021/04/16 08:41:11;;;;;;;23.35;7.72;;;;;;;4.97;82.93;101113.80;1766358;78;21175;-74
2021/04/16 08:43:46;;;;;;;23.67;9.43;;;;;;;4.99;82.86;101110.57;1797935;78;21183;-75
2021/04/16 08:46:36;;;;;;;17.77;6.87;;;;;;;5.00;82.80;101113.55;1800214;78;21180;-74
2021/04/16 08:49:10;;;;;;;19.65;8.35;;;;;;;5.00;82.73;101117.05;1797699;78;21140;-74
2021/04/16 08:51:37;;;;;;;21.57;6.60;;;;;;;4.97;82.65;101119.08;1796272;78;21147;-74
2021/04/16 08:54:29;;;;;;;24.05;8.40;;;;;;;4.95;82.61;101124.98;1794045;78;21103;-74
2021/04/16 08:57:11;;;;;;;17.80;6.60;;;;;;;4.95;82.55;101119.69;1792562;78;21626;-74
2021/04/16 09:00:03;;;;;;;15.55;6.92;;;;;;;4.96;82.46;101132.77;1793829;78;21628;-75
2021/04/16 09:02:46;;;;;;;17.98;7.70;;;;;;;4.94;82.41;101128.56;1795128;78;21147;-74
2021/04/16 09:05:19;;;;;;;16.23;6.58;;;;;;;4.92;82.33;101126.53;1793740;78;21546;-74
2021/04/16 09:07:58;;;;;;;16.35;7.35;;;;;;;4.91;82.26;101128.80;1799438;78;21140;-76
2021/04/16 09:10:33;;;;;;;12.78;6.12;;;;;;;4.91;82.20;101133.61;1796736;78;21262;-76
2021/04/16 09:13:02;;;;;;;13.15;6.65;;;;;;;4.90;82.14;101127.95;1798022;78;21605;-75
2021/04/16 09:15:34;;;;;;;28.23;10.58;;;;;;;4.86;82.09;101132.25;1793914;78;21228;-76
2021/04/16 09:18:06;;;;;;;33.60;15.10;;;;;;;4.86;82.03;101130.94;1794065;78;21150;-75
2021/04/16 09:20:40;;;;;;;26.87;11.88;;;;;;;4.87;81.99;101129.98;1808157;78;21131;-75
2021/04/16 09:23:41;;;;;;;20.80;9.75;;;;;;;4.83;81.96;101131.17;1793649;80;21657;-75
2021/04/16 09:26:08;;;;;;;25.50;12.70;;;;;;;4.82;81.89;101133.47;1824954;78;21183;-75
2021/04/16 09:28:51;;;;;;;9.63;5.85;;;;;;;4.79;81.89;101134.52;1823502;78;21663;-75
2021/04/16 09:31:29;;;;;;;59.63;21.90;;;;;;;4.79;81.87;101133.67;1801414;78;21175;-75
2021/04/16 09:34:16;;;;;;;48.68;19.30;;;;;;;4.76;81.80;101129.94;1809781;78;21154;-75
2021/04/16 09:36:53;;;;;;;20.70;12.80;;;;;;;4.79;81.78;101129.23;1800727;78;21193;-76
2021/04/16 09:39:33;;;;;;;10.72;4.80;;;;;;;4.79;81.75;101137.64;1819249;78;21509;-76
2021/04/16 09:41:59;;;;;;;16.57;8.28;;;;;;;4.75;81.71;101134.38;1797152;78;21182;-75
2021/04/16 09:44:31;;;;;;;26.17;9.23;;;;;;;4.74;81.65;101127.44;1802376;78;21163;-75
2021/04/16 09:47:04;;;;;;;26.40;10.05;;;;;;;4.76;81.65;101136.55;1803581;78;21151;-75
2021/04/16 09:49:41;;;;;;;23.12;10.45;;;;;;;4.80;81.61;101136.22;1794110;80;21291;-75
2021/04/16 09:52:34;;;;;;;23.25;11.48;;;;;;;4.85;81.56;101137.20;1765704;78;21154;-75
2021/04/16 09:55:01;;;;;;;24.95;10.88;;;;;;;4.89;81.56;101136.83;1793843;80;21588;-75
2021/04/16 09:57:41;;;;;;;24.80;11.00;;;;;;;4.91;81.48;101132.77;1797876;78;21235;-76
2021/04/16 10:00:30;;;;;;;18.52;7.80;;;;;;;4.92;81.44;101141.06;1822395;78;21179;-76
2021/04/16 10:03:20;;;;;;;19.90;8.68;;;;;;;4.96;81.43;101133.28;1774333;80;21207;-76
2021/04/16 10:05:47;;;;;;;26.05;11.05;;;;;;;4.91;81.39;101134.09;1765284;80;21711;-76
2021/04/16 10:08:27;;;;;;;17.62;10.08;;;;;;;4.88;81.38;101139.61;1759712;80;21113;-75
2021/04/16 10:10:54;;;;;;;14.38;7.75;;;;;;;4.86;81.32;101137.54;1756659;80;21200;-75
2021/04/16 10:13:29;;;;;;;15.05;5.28;;;;;;;4.85;81.28;101135.41;1729994;81;21607;-75
2021/04/16 10:15:56;;;;;;;14.43;6.15;;;;;;;4.84;81.23;101130.22;1783884;80;21641;-75
2021/04/16 10:18:39;;;;;;;21.62;8.70;;;;;;;4.83;81.20;101132.48;1756655;80;21148;-75
2021/04/16 10:21:21;;;;;;;27.32;11.08;;;;;;;4.84;81.15;101135.50;1755822;81;21216;-75
2021/04/16 10:24:12;;;;;;;34.10;14.58;;;;;;;4.86;81.10;101129.14;1749063;81;21555;-75
2021/04/16 10:58:33;;;;;;;31.23;14.20;;;;;;;4.87;80.74;101115.45;1737663;81;21276;-78
2021/04/16 11:18:48;;;;;;;144.53;54.30;;;;;;;4.69;80.60;101126.08;1741671;81;21662;-77
2021/04/16 11:20:01;;;;;;;128.40;43.85;;;;;;;4.66;80.57;101119.70;1731804;81;21596;-78
2021/04/16 12:40:25;;;;;;;63.73;21.10;;;;;;;5.17;79.74;101133.44;1738820;82;21223;-77
2021/04/16 12:42:52;;;;;;;43.87;14.87;;;;;;;5.17;79.69;101138.25;1739734;82;21127;-77
2021/04/16 12:45:18;;;;;;;30.48;11.08;;;;;;;5.17;79.67;101138.25;1755511;80;21577;-77
2021/04/16 12:47:45;;;;;;;45.50;17.42;;;;;;;5.18;79.64;101134.63;1761308;80;21261;-77
2021/04/16 12:50:16;;;;;;;61.30;22.70;;;;;;;5.16;79.60;101133.91;1722582;83;21218;-77
2021/04/16 12:52:44;;;;;;;32.30;11.95;;;;;;;5.17;79.57;101130.32;1738877;81;21187;-77
2021/04/16 12:55:12;;;;;;;41.65;15.65;;;;;;;5.18;79.53;101126.70;1744846;80;21823;-77
2021/04/16 12:57:44;;;;;;;41.98;16.32;;;;;;;5.15;79.46;101129.58;1787721;80;21132;-77
2021/04/16 13:00:19;;;;;;;31.10;11.43;;;;;;;5.19;79.43;101128.86;1786279;80;21219;-76
2021/04/16 13:02:45;;;;;;;27.35;9.10;;;;;;;5.20;79.37;101123.47;1778757;80;21614;-76
2021/04/16 13:05:14;;;;;;;32.38;10.63;;;;;;;5.22;79.31;101125.50;1760389;81;21196;-76
2021/04/16 13:07:42;;;;;;;19.85;7.50;;;;;;;5.25;79.23;101116.48;1756045;81;21148;-76
2021/04/16 13:10:16;;;;;;;23.10;8.05;;;;;;;5.32;79.15;101115.05;1760105;80;21204;-76
2021/04/16 13:12:44;;;;;;;15.70;6.70;;;;;;;5.30;79.04;101117.83;1760884;81;21424;-75
2021/04/16 13:15:12;;;;;;;21.75;7.90;;;;;;;5.31;79.00;101104.95;1760671;81;21178;-76
2021/04/16 13:17:41;;;;;;;28.30;11.55;;;;;;;5.36;78.92;101096.19;1760462;81;21705;-76
2021/04/16 13:20:14;;;;;;;18.95;7.78;;;;;;;5.46;78.84;101095.83;1782714;80;21597;-77
2021/04/16 13:22:41;;;;;;;12.43;4.53;;;;;;;5.53;78.76;101102.32;1791278;80;21683;-77
2021/04/16 13:25:10;;;;;;;11.03;4.67;;;;;;;5.52;78.71;101101.95;1770038;80;21206;-77
2021/04/16 13:27:38;;;;;;;16.25;7.55;;;;;;;5.45;78.62;101106.04;1760902;81;21222;-77
2021/04/16 13:30:06;;;;;;;12.50;6.60;;;;;;;5.37;78.54;101099.20;1760851;81;21199;-76
2021/04/16 13:32:37;;;;;;;13.78;5.62;;;;;;;5.37;78.49;101091.75;1761492;80;21154;-77
2021/04/16 13:35:04;;;;;;;24.35;8.53;;;;;;;5.37;78.43;101103.17;1764319;80;21151;-77
2021/04/16 13:37:31;;;;;;;23.95;9.48;;;;;;;5.32;78.36;101100.03;1738193;80;21210;-77
2021/04/16 13:39:57;;;;;;;33.05;10.75;;;;;;;5.31;78.29;101097.02;1766932;80;21152;-77
2021/04/16 13:42:24;;;;;;;20.57;7.95;;;;;;;5.29;78.21;101094.98;1773831;80;21175;-77
2021/04/16 13:44:50;;;;;;;47.50;16.90;;;;;;;5.28;78.19;101097.26;1773842;80;21573;-77
2021/04/16 13:47:24;;;;;;;27.15;8.18;;;;;;;5.30;78.16;101094.51;1764056;80;21162;-77
2021/04/16 13:49:50;;;;;;;17.60;5.20;;;;;;;5.29;78.11;101100.27;1777543;80;21245;-77
2021/04/16 13:52:17;;;;;;;16.62;6.08;;;;;;;5.25;78.10;101100.63;1772461;80;21171;-77